Big Bear Station Historical Data
Daily Summary for February 2, 2019 Units:  English    Metric   Both
Next Day »
Daily Weekly Monthly Yearly Custom
  High: Low: Average:
Temperature: 39.0 °F 28.4 °F 33.9 °F
Dew Point: 38.5 °F 27.4 °F 32.9 °F
Humidity: 99% 91% 96%
Wind Speed: 10.9mph 0.0mph 3.7mph
Wind Gust: 23.8mph - -
Wind- - SSW
Pressure: 23.35 in 23.15 in -
Precipitation: 3.03 in    
Historical Graphs
 
 
Tabular Data for February 2, 2019
Time Temperature Dew Point Pressure Wind Wind Speed Wind Gust Humidity Rainfall Rate (Hourly)
00:06 33.6 °F 31.3 °F 23.35 in NW 1.1 mph -999.0 mph 91% 0.00 in
00:21 33.4 °F 31.1 °F 23.35 in Calm   -999.0 mph 91% 0.00 in
00:37 33.1 °F 31.0 °F 23.35 in NNW 2.2 mph -999.0 mph 92% 0.00 in
00:52 32.7 °F 31.2 °F 23.34 in NW 2.2 mph -999.0 mph 94% 0.00 in
01:11 32.7 °F 31.7 °F 23.35 in WNW 3.7 mph -999.0 mph 96% 0.00 in
01:27 32.5 °F 31.5 °F 23.34 in North 2.2 mph -999.0 mph 96% 0.00 in
01:43 32.2 °F 31.2 °F 23.34 in Calm   -999.0 mph 96% 0.00 in
01:58 31.8 °F 30.8 °F 23.34 in SSW 3.7 mph -999.0 mph 96% 0.00 in
02:13 32.5 °F 31.5 °F 23.34 in WNW 1.1 mph -999.0 mph 96% 0.00 in
02:29 33.4 °F 32.6 °F 23.34 in Calm   -999.0 mph 97% 0.00 in
02:44 34.9 °F 34.4 °F 23.34 in SSW 1.7 mph -999.0 mph 98% 0.00 in
02:59 35.4 °F 34.9 °F 23.34 in NW 1.1 mph -999.0 mph 98% 0.00 in
03:14 35.6 °F 35.1 °F 23.34 in Calm   -999.0 mph 98% 0.00 in
03:30 35.4 °F 34.9 °F 23.34 in NNW 1.7 mph -999.0 mph 98% 0.00 in
03:45 35.1 °F 34.6 °F 23.32 in SW 1.7 mph -999.0 mph 98% 0.00 in
04:01 34.7 °F 34.2 °F 23.32 in South 2.2 mph -999.0 mph 98% 0.00 in
04:17 34.9 °F 34.4 °F 23.32 in Calm   -999.0 mph 98% 0.00 in
04:32 35.2 °F 34.9 °F 23.32 in NNW 4.7 mph -999.0 mph 99% 0.00 in
04:47 36.7 °F 36.4 °F 23.31 in SE 2.7 mph -999.0 mph 99% 0.00 in
05:02 38.1 °F 37.8 °F 23.30 in SW 3.7 mph -999.0 mph 99% 0.00 in
05:17 38.8 °F 38.5 °F 23.30 in WNW 3.2 mph -999.0 mph 99% 0.00 in
05:33 38.8 °F 38.5 °F 23.30 in South 5.8 mph -999.0 mph 99% 0.00 in
05:48 38.8 °F 38.5 °F 23.30 in SSW 5.3 mph -999.0 mph 99% 0.00 in
06:04 39.0 °F 38.5 °F 23.29 in SW 6.3 mph -999.0 mph 98% 0.00 in
06:19 37.9 °F 37.1 °F 23.30 in SSW 10.9 mph -999.0 mph 97% 0.00 in
06:34 38.1 °F 37.3 °F 23.31 in North 5.3 mph -999.0 mph 97% 0.00 in
06:49 37.8 °F 37.3 °F 23.31 in SSW 4.2 mph -999.0 mph 98% 0.00 in
07:05 37.6 °F 37.1 °F 23.31 in SSW 4.7 mph -999.0 mph 98% 0.00 in
07:21 37.2 °F 36.7 °F 23.30 in ENE 3.7 mph 23.8 mph 98% 0.00 in
07:36 37.4 °F 36.9 °F 23.29 in SSW 9.4 mph -999.0 mph 98% 0.00 in
07:51 37.8 °F 37.0 °F 23.29 in South 5.8 mph -999.0 mph 97% 0.00 in
08:06 38.1 °F 37.3 °F 23.30 in ENE 8.3 mph -999.0 mph 97% 0.00 in
08:22 37.9 °F 37.1 °F 23.31 in SSE 5.3 mph -999.0 mph 97% 0.00 in
08:37 37.4 °F 36.1 °F 23.32 in SW 7.8 mph 22.2 mph 95% 0.00 in
08:53 37.4 °F 36.1 °F 23.31 in SSE 6.8 mph -999.0 mph 95% 0.00 in
09:08 37.6 °F 36.3 °F 23.32 in SSW 3.7 mph -999.0 mph 95% 0.00 in
09:23 36.9 °F 35.6 °F 23.32 in West 6.3 mph -999.0 mph 95% 0.00 in
09:38 36.0 °F 34.7 °F 23.33 in South 6.8 mph -999.0 mph 95% 0.00 in
09:54 35.8 °F 34.5 °F 23.33 in South 3.7 mph -999.0 mph 95% 0.00 in
10:09 35.1 °F 33.5 °F 23.32 in South 7.3 mph -999.0 mph 94% 0.00 in
10:25 35.1 °F 33.8 °F 23.32 in SSE 6.8 mph -999.0 mph 95% 0.00 in
10:40 35.4 °F 34.1 °F 23.32 in South 7.8 mph -999.0 mph 95% 0.00 in
10:55 36.0 °F 34.7 °F 23.32 in SSW 3.7 mph -999.0 mph 95% 0.00 in
11:11 35.6 °F 34.0 °F 23.30 in WSW 6.3 mph -999.0 mph 94% 0.00 in
11:26 34.7 °F 33.2 °F 23.31 in SE 3.7 mph -999.0 mph 94% 0.00 in
11:41 34.3 °F 33.0 °F 23.29 in NE 3.2 mph -999.0 mph 95% 0.00 in
11:57 34.7 °F 33.4 °F 23.28 in South 5.8 mph -999.0 mph 95% 0.00 in
12:12 35.1 °F 33.8 °F 23.27 in South 2.2 mph -999.0 mph 95% 0.00 in
12:27 35.6 °F 34.6 °F 23.24 in South 3.7 mph -999.0 mph 96% 0.00 in
12:43 35.8 °F 34.5 °F 23.23 in SSE 3.7 mph -999.0 mph 95% 0.00 in
13:00 34.5 °F 33.2 °F 23.23 in NNW 2.7 mph -999.0 mph 95% 0.00 in
13:15 34.9 °F 33.6 °F 23.21 in NW 4.7 mph -999.0 mph 95% 0.00 in
13:31 35.2 °F 33.9 °F 23.19 in SW 4.2 mph 20.7 mph 95% 0.00 in
13:46 35.8 °F 34.5 °F 23.18 in SSE 4.7 mph -999.0 mph 95% 0.00 in
14:02 35.2 °F 34.2 °F 23.18 in West 3.7 mph -999.0 mph 96% 0.00 in
14:19 35.6 °F 34.6 °F 23.16 in SSW 4.7 mph -999.0 mph 96% 0.00 in
14:35 35.8 °F 34.5 °F 23.17 in NW 4.7 mph -999.0 mph 95% 0.00 in
14:50 36.5 °F 35.5 °F 23.15 in SW 4.2 mph -999.0 mph 96% 0.00 in
15:05 36.7 °F 35.4 °F 23.16 in West 4.2 mph -999.0 mph 95% 0.00 in
15:21 36.0 °F 35.0 °F 23.15 in West 4.7 mph -999.0 mph 96% 0.00 in
15:36 34.9 °F 33.9 °F 23.17 in Calm   -999.0 mph 96% 0.00 in
15:51 34.9 °F 33.9 °F 23.16 in SSE 2.7 mph -999.0 mph 96% 0.00 in
16:07 34.5 °F 33.5 °F 23.17 in South 5.8 mph -999.0 mph 96% 0.00 in
16:22 34.3 °F 33.3 °F 23.16 in Calm   -999.0 mph 96% 0.00 in
16:40 33.1 °F 32.1 °F 23.17 in Calm   -999.0 mph 96% 0.00 in
16:56 32.7 °F 31.7 °F 23.17 in Calm   -999.0 mph 96% 0.00 in
17:11 32.2 °F 31.4 °F 23.17 in Calm   -999.0 mph 97% 0.00 in
17:26 31.6 °F 30.8 °F 23.18 in ESE 1.1 mph -999.0 mph 97% 0.00 in
17:41 31.6 °F 30.8 °F 23.17 in SE 3.7 mph -999.0 mph 97% 0.00 in
17:56 31.3 °F 30.5 °F 23.17 in NNW 2.7 mph -999.0 mph 97% 0.00 in
18:12 30.7 °F 29.9 °F 23.17 in SSW 3.7 mph -999.0 mph 97% 0.00 in
18:27 30.7 °F 29.9 °F 23.18 in South 2.2 mph -999.0 mph 97% 0.00 in
18:42 30.7 °F 29.9 °F 23.19 in NE 4.7 mph -999.0 mph 97% 0.00 in
18:58 30.2 °F 29.2 °F 23.19 in SE 2.2 mph -999.0 mph 96% 0.00 in
19:13 29.7 °F 29.0 °F 23.19 in South 4.2 mph -999.0 mph 97% 0.00 in
19:28 29.3 °F 28.6 °F 23.19 in South 6.3 mph -999.0 mph 97% 0.00 in
19:43 29.5 °F 28.8 °F 23.19 in South 5.8 mph -999.0 mph 97% 0.00 in
19:59 29.5 °F 28.8 °F 23.19 in South 2.2 mph -999.0 mph 97% 0.00 in
20:14 29.5 °F 28.8 °F 23.19 in South 3.2 mph -999.0 mph 97% 0.00 in
20:29 29.7 °F 29.0 °F 23.19 in South 2.7 mph -999.0 mph 97% 0.00 in
20:45 29.7 °F 28.7 °F 23.19 in Calm   -999.0 mph 96% 0.00 in
21:00 29.7 °F 28.7 °F 23.19 in Calm   -999.0 mph 96% 0.00 in
21:16 29.8 °F 28.8 °F 23.20 in ENE 5.3 mph -999.0 mph 96% 0.00 in
21:31 29.7 °F 28.7 °F 23.20 in SSW 4.2 mph -999.0 mph 96% 0.00 in
21:46 29.3 °F 28.3 °F 23.21 in NNE 5.3 mph -999.0 mph 96% 0.00 in
22:01 28.9 °F 27.9 °F 23.22 in SSW 3.7 mph -999.0 mph 96% 0.00 in
22:17 28.6 °F 27.6 °F 23.23 in SSE 5.3 mph -999.0 mph 96% 0.00 in
22:32 28.6 °F 27.6 °F 23.22 in Calm   -999.0 mph 96% 0.00 in
22:47 28.4 °F 27.4 °F 23.23 in ESE 4.2 mph -999.0 mph 96% 0.00 in
23:02 28.4 °F 27.7 °F 23.22 in SSW 4.2 mph -999.0 mph 97% 0.00 in
23:18 28.4 °F 27.7 °F 23.23 in WSW 4.2 mph -999.0 mph 97% 0.00 in
23:33 28.4 °F 27.7 °F 23.23 in NNE 5.8 mph -999.0 mph 97% 0.00 in
23:49 28.4 °F 27.4 °F 23.23 in SSE 3.7 mph -999.0 mph 96% 0.00 in
Big Bear CA Weather